Time;durP1;ratioP1;P1;durP2;ratioP2;P2;SDS_P1;SDS_P2;PMS_P1;PMS_P2;Temp;Humidity;BMP_temperature;BMP_pressure;BME280_temperature;BME280_humidity;BME280_pressure;Samples;Min_cycle;Max_cycle;Signal;HPM_P1;HPM_P2
2023/08/21 00:00:31;;;;;;;;;;;;;;;26.36;40.35;99728.44;3141605;28;20135;-73
2023/08/21 00:02:02;;;;;;;;;;;;;;;26.36;40.43;99720.41;3126069;28;19929;-71
2023/08/21 00:03:33;;;;;;;;;;;;;;;26.36;40.78;99720.41;3137267;28;20018;-74
2023/08/21 00:05:04;;;;;;;;;;;;;;;26.36;40.41;99725.75;3141085;28;19925;-74
2023/08/21 00:06:36;;;;;;;;;;;;;;;26.35;40.55;99728.59;3141187;28;19985;-74
2023/08/21 00:08:06;;;;;;;;;;;;;;;26.32;40.83;99727.09;3138520;28;20259;-73
2023/08/21 00:09:38;;;;;;;;;;;;;;;26.30;40.87;99731.78;3141002;28;20511;-73
2023/08/21 00:11:10;;;;;;;;;;;;;;;26.27;41.08;99726.81;3141246;28;19935;-74
2023/08/21 00:12:42;;;;;;;;;;;;;;;26.22;41.20;99729.97;3141149;28;19974;-74
2023/08/21 00:14:12;;;;;;;;;;;;;;;26.21;40.85;99727.50;3140656;28;19928;-74
2023/08/21 00:15:44;;;;;;;;;;;;;;;26.21;41.06;99730.16;3140570;28;19924;-70
2023/08/21 00:17:15;;;;;;;;;;;;;;;26.20;41.13;99737.31;3140873;28;19925;-72
2023/08/21 00:18:47;;;;;;;;;;;;;;;26.18;41.19;99739.34;3140731;28;19928;-71
2023/08/21 00:20:18;;;;;;;;;;;;;;;26.17;41.12;99744.84;3141083;28;20015;-71
2023/08/21 00:21:50;;;;;;;;;;;;;;;26.15;41.33;99745.03;3141103;28;19924;-71
2023/08/21 00:23:20;;;;;;;;;;;;;;;26.15;41.16;99736.16;3116512;28;19929;-71
2023/08/21 00:24:52;;;;;;;;;;;;;;;26.14;40.97;99745.19;3128430;28;19925;-71
2023/08/21 00:26:25;;;;;;;;;;;;;;;26.09;41.19;99740.38;3140504;28;19932;-70
2023/08/21 00:27:56;;;;;;;;;;;;;;;26.05;41.47;99744.38;3140843;28;19977;-71
2023/08/21 00:29:28;;;;;;;;;;;;;;;25.98;41.53;99741.56;3141023;28;20841;-71
2023/08/21 00:31:03;;;;;;;;;;;;;;;25.94;41.63;99740.25;3140792;28;19939;-71
2023/08/21 00:32:34;;;;;;;;;;;;;;;25.89;41.83;99744.41;3134243;28;19931;-71
2023/08/21 00:34:06;;;;;;;;;;;;;;;25.86;41.79;99745.56;3136875;28;19935;-71
2023/08/21 00:35:37;;;;;;;;;;;;;;;25.81;41.74;99751.38;3140603;28;19924;-71
2023/08/21 00:37:08;;;;;;;;;;;;;;;25.77;41.99;99746.56;3134950;28;19924;-71
2023/08/21 00:38:40;;;;;;;;;;;;;;;25.75;41.68;99746.72;3128370;28;20428;-69
2023/08/21 00:40:11;;;;;;;;;;;;;;;25.74;41.69;99753.06;3140074;28;19929;-69
2023/08/21 00:41:44;;;;;;;;;;;;;;;25.74;42.00;99747.72;3140553;28;19924;-70
2023/08/21 00:43:15;;;;;;;;;;;;;;;25.73;41.88;99750.56;3140342;28;19924;-70
2023/08/21 00:44:46;;;;;;;;;;;;;;;25.68;42.23;99745.75;3140164;28;19928;-71
2023/08/21 00:46:17;;;;;;;;;;;;;;;25.61;42.03;99753.56;3140621;28;19947;-70
2023/08/21 00:47:48;;;;;;;;;;;;;;;25.56;42.42;99750.56;3133942;28;19924;-70
2023/08/21 00:49:19;;;;;;;;;;;;;;;25.53;42.00;99750.09;3140465;28;19924;-69
2023/08/21 00:50:51;;;;;;;;;;;;;;;25.48;42.54;99747.91;3140848;28;20400;-70
2023/08/21 00:52:22;;;;;;;;;;;;;;;25.43;42.33;99750.22;3131392;28;20206;-69
2023/08/21 00:53:53;;;;;;;;;;;;;;;25.38;42.71;99752.59;3133440;28;20453;-70
2023/08/21 00:55:24;;;;;;;;;;;;;;;25.35;42.76;99745.75;3137064;28;20146;-70
2023/08/21 00:56:57;;;;;;;;;;;;;;;25.32;42.92;99747.88;3140265;28;20345;-69
2023/08/21 00:58:28;;;;;;;;;;;;;;;25.27;42.70;99744.91;3137833;28;20677;-69
2023/08/21 01:00:01;;;;;;;;;;;;;;;25.26;43.05;99752.06;3140215;28;19971;-70
2023/08/21 01:01:33;;;;;;;;;;;;;;;25.20;42.99;99744.72;3133707;28;19928;-69
2023/08/21 01:03:04;;;;;;;;;;;;;;;25.17;43.01;99747.69;3133485;28;20012;-69
2023/08/21 01:04:35;;;;;;;;;;;;;;;25.12;43.31;99744.69;3140324;28;19924;-70
2023/08/21 01:06:08;;;;;;;;;;;;;;;25.09;43.50;99740.53;3140376;28;19977;-69
2023/08/21 01:07:43;;;;;;;;;;;;;;;25.06;43.39;99743.50;3135531;28;19924;-70
2023/08/21 01:09:19;;;;;;;;;;;;;;;25.00;43.27;99743.34;3135854;28;20357;-70
2023/08/21 01:10:52;;;;;;;;;;;;;;;24.98;43.68;99743.50;3140021;28;20358;-70
2023/08/21 01:12:30;;;;;;;;;;;;;;;24.94;43.75;99742.16;3140542;28;20395;-69
2023/08/21 01:14:06;;;;;;;;;;;;;;;24.91;43.64;99740.66;3139943;28;20431;-70
2023/08/21 01:15:39;;;;;;;;;;;;;;;24.90;43.82;99746.13;3140312;28;20023;-70
2023/08/21 01:17:12;;;;;;;;;;;;;;;24.87;43.59;99747.28;3136412;28;19924;-69
2023/08/21 01:18:45;;;;;;;;;;;;;;;24.87;43.85;99744.63;3140217;28;19959;-70
2023/08/21 01:20:17;;;;;;;;;;;;;;;24.88;43.45;99745.47;3139892;28;20364;-70
2023/08/21 01:21:48;;;;;;;;;;;;;;;24.86;43.77;99752.78;3140178;28;20027;-69
2023/08/21 01:23:34;;;;;;;;;;;;;;;24.88;43.36;99746.31;3117250;28;20318;-70
2023/08/21 01:25:05;;;;;;;;;;;;;;;24.89;43.35;99749.81;3152856;28;19923;-69
2023/08/21 01:26:36;;;;;;;;;;;;;;;24.89;43.67;99755.13;3152766;28;19947;-69
2023/08/21 01:28:07;;;;;;;;;;;;;;;24.85;43.66;99745.81;3152857;28;19928;-69
2023/08/21 01:29:39;;;;;;;;;;;;;;;24.81;43.74;99741.78;3140016;28;19983;-69
2023/08/21 01:31:11;;;;;;;;;;;;;;;24.76;43.80;99752.94;3148487;28;20248;-70
2023/08/21 01:32:49;;;;;;;;;;;;;;;24.70;44.14;99748.25;3151096;28;19930;-69
2023/08/21 01:34:21;;;;;;;;;;;;;;;24.67;44.13;99745.91;3152548;28;19940;-70
2023/08/21 01:35:52;;;;;;;;;;;;;;;24.62;44.13;99743.72;3152597;28;19932;-71
2023/08/21 01:37:24;;;;;;;;;;;;;;;24.61;44.40;99747.41;3142833;28;20344;-71
2023/08/21 01:38:57;;;;;;;;;;;;;;;24.61;44.37;99750.06;3144937;28;19924;-71
2023/08/21 01:40:28;;;;;;;;;;;;;;;24.64;43.97;99760.38;3152709;28;20328;-71
2023/08/21 01:41:59;;;;;;;;;;;;;;;24.64;44.19;99748.88;3152241;28;20038;-71
2023/08/21 01:43:30;;;;;;;;;;;;;;;24.64;44.04;99751.53;3152101;28;20378;-72
2023/08/21 01:45:01;;;;;;;;;;;;;;;24.61;43.98;99749.19;3152684;28;19954;-72
2023/08/21 01:46:33;;;;;;;;;;;;;;;24.59;44.52;99752.03;3143590;28;20424;-71
2023/08/21 01:48:04;;;;;;;;;;;;;;;24.58;44.41;99749.53;3143176;28;20022;-73
2023/08/21 01:49:35;;;;;;;;;;;;;;;24.57;44.06;99756.69;3152695;28;19930;-73
2023/08/21 01:51:07;;;;;;;;;;;;;;;24.59;44.23;99746.72;3134660;28;19924;-73
2023/08/21 01:52:37;;;;;;;;;;;;;;;24.59;44.30;99746.72;3147333;28;19947;-73
2023/08/21 01:54:10;;;;;;;;;;;;;;;24.58;44.15;99752.19;3152429;28;20575;-71
2023/08/21 01:55:42;;;;;;;;;;;;;;;24.57;44.03;99747.88;3152791;28;19924;-72
2023/08/21 01:57:14;;;;;;;;;;;;;;;24.52;44.40;99757.19;3152593;28;19931;-73
2023/08/21 01:58:44;;;;;;;;;;;;;;;24.47;44.39;99748.00;3152432;28;19989;-73
2023/08/21 02:00:16;;;;;;;;;;;;;;;24.46;44.36;99748.97;3150796;28;19976;-72
2023/08/21 02:01:48;;;;;;;;;;;;;;;24.47;44.30;99746.16;3140581;28;19929;-71
2023/08/21 02:03:18;;;;;;;;;;;;;;;24.47;44.43;99742.69;3146719;28;19924;-72
2023/08/21 02:04:50;;;;;;;;;;;;;;;24.47;44.38;99745.34;3152626;28;20301;-72
2023/08/21 02:06:20;;;;;;;;;;;;;;;24.45;44.47;99749.97;3152347;28;19970;-72
2023/08/21 02:07:52;;;;;;;;;;;;;;;24.37;44.67;99745.41;3150332;28;20501;-73
2023/08/21 02:09:24;;;;;;;;;;;;;;;24.34;44.81;99747.56;3152638;28;19928;-73
2023/08/21 02:10:56;;;;;;;;;;;;;;;24.33;45.00;99745.91;3152209;28;20434;-72
2023/08/21 02:12:26;;;;;;;;;;;;;;;24.31;45.03;99740.72;3152596;28;19946;-72
2023/08/21 02:13:58;;;;;;;;;;;;;;;24.30;45.16;99742.56;3152431;28;19924;-72
2023/08/21 02:15:28;;;;;;;;;;;;;;;24.28;44.91;99746.38;3148008;28;19923;-72
2023/08/21 02:17:00;;;;;;;;;;;;;;;24.27;45.20;99742.88;3152327;28;19924;-72
2023/08/21 02:18:31;;;;;;;;;;;;;;;24.26;45.22;99735.91;3152387;28;19931;-72
2023/08/21 02:20:02;;;;;;;;;;;;;;;24.27;45.10;99742.88;3151905;28;19928;-72
2023/08/21 02:21:34;;;;;;;;;;;;;;;24.29;44.83;99740.06;3152625;28;19947;-72
2023/08/21 02:23:05;;;;;;;;;;;;;;;24.28;45.25;99738.38;3133346;28;19924;-72
2023/08/21 02:24:39;;;;;;;;;;;;;;;24.24;45.25;99735.22;3152757;28;19931;-72
2023/08/21 02:26:10;;;;;;;;;;;;;;;24.22;45.24;99731.03;3154913;28;19945;-73
2023/08/21 02:27:41;;;;;;;;;;;;;;;24.21;45.42;99738.19;3154388;28;19935;-72
2023/08/21 02:29:13;;;;;;;;;;;;;;;24.21;45.44;99738.19;3154539;28;19924;-72
2023/08/21 02:30:43;;;;;;;;;;;;;;;24.22;45.11;99734.53;3151173;28;19931;-72
2023/08/21 02:32:15;;;;;;;;;;;;;;;24.24;45.04;99729.91;3152178;28;19924;-72
2023/08/21 02:33:45;;;;;;;;;;;;;;;24.25;45.27;99733.38;3154899;28;19924;-72
2023/08/21 02:35:17;;;;;;;;;;;;;;;24.26;44.93;99733.25;3154257;28;19949;-72
2023/08/21 02:36:48;;;;;;;;;;;;;;;24.28;44.88;99733.94;3154649;28;19934;-72
2023/08/21 02:38:19;;;;;;;;;;;;;;;24.30;44.85;99736.41;3146163;28;19983;-72
2023/08/21 02:39:52;;;;;;;;;;;;;;;24.30;45.19;99733.75;3154363;28;19924;-72
2023/08/21 02:41:24;;;;;;;;;;;;;;;24.33;44.96;99737.94;3154304;28;19932;-72
2023/08/21 02:42:54;;;;;;;;;;;;;;;24.34;45.06;99731.59;3154853;28;19924;-72
2023/08/21 02:44:26;;;;;;;;;;;;;;;24.35;44.87;99733.28;3148709;28;20369;-72
2023/08/21 02:45:58;;;;;;;;;;;;;;;24.35;44.98;99735.94;3129930;28;19925;-74
2023/08/21 02:47:28;;;;;;;;;;;;;;;24.37;44.78;99741.91;3141143;28;20397;-73
2023/08/21 02:49:00;;;;;;;;;;;;;;;24.39;44.84;99739.94;3141790;28;19999;-73
2023/08/21 02:50:31;;;;;;;;;;;;;;;24.40;44.91;99733.63;3152605;28;19928;-71
2023/08/21 02:52:03;;;;;;;;;;;;;;;24.42;44.52;99744.94;3152464;28;19928;-71
2023/08/21 02:53:34;;;;;;;;;;;;;;;24.41;44.68;99743.28;3150692;28;19924;-74
2023/08/21 02:55:07;;;;;;;;;;;;;;;24.38;44.95;99741.78;3150273;28;20025;-74
2023/08/21 02:56:38;;;;;;;;;;;;;;;24.37;44.73;99739.25;3154541;28;20356;-74
2023/08/21 02:58:10;;;;;;;;;;;;;;;24.34;44.80;99736.91;3154030;28;19924;-73
2023/08/21 02:59:40;;;;;;;;;;;;;;;24.35;44.89;99741.28;3150459;28;19924;-74
2023/08/21 03:01:12;;;;;;;;;;;;;;;24.34;45.14;99736.91;3153984;28;19924;-73
2023/08/21 03:02:43;;;;;;;;;;;;;;;24.33;45.11;99732.59;3137178;28;19924;-73
2023/08/21 03:04:15;;;;;;;;;;;;;;;24.33;44.78;99735.25;3154164;28;19974;-73
2023/08/21 03:05:46;;;;;;;;;;;;;;;24.34;44.95;99735.09;3153804;28;19928;-72
2023/08/21 03:07:18;;;;;;;;;;;;;;;24.36;44.62;99737.59;3151318;28;19934;-74
2023/08/21 03:08:50;;;;;;;;;;;;;;;24.37;44.78;99733.94;3154322;28;19924;-73
2023/08/21 03:10:23;;;;;;;;;;;;;;;24.36;44.95;99737.59;3154286;28;20394;-74
2023/08/21 03:11:55;;;;;;;;;;;;;;;24.35;44.84;99738.59;3129399;28;20637;-73
2023/08/21 03:13:26;;;;;;;;;;;;;;;24.34;44.84;99737.75;3149753;28;19924;-73
2023/08/21 03:14:58;;;;;;;;;;;;;;;24.34;44.73;99728.94;3152590;28;19928;-73
2023/08/21 03:16:29;;;;;;;;;;;;;;;24.35;45.00;99731.44;3154163;28;19928;-73
2023/08/21 03:18:01;;;;;;;;;;;;;;;24.36;45.01;99738.44;3148689;28;20528;-73
2023/08/21 03:19:31;;;;;;;;;;;;;;;24.38;44.49;99733.78;3149846;28;19978;-74
2023/08/21 03:21:03;;;;;;;;;;;;;;;24.39;44.63;99739.94;3154240;28;20396;-74
2023/08/21 03:22:33;;;;;;;;;;;;;;;24.40;44.55;99744.25;3148132;28;20469;-74
2023/08/21 03:24:07;;;;;;;;;;;;;;;24.40;44.84;99741.59;3138958;28;19931;-74
2023/08/21 03:25:38;;;;;;;;;;;;;;;24.39;44.52;99738.13;3141584;28;19928;-75
2023/08/21 03:27:10;;;;;;;;;;;;;;;24.40;44.93;99741.59;3141205;28;19924;-71
2023/08/21 03:28:41;;;;;;;;;;;;;;;24.39;44.72;99746.09;3136751;28;19924;-72
2023/08/21 03:30:14;;;;;;;;;;;;;;;24.42;44.45;99745.81;3141460;28;19924;-71
2023/08/21 03:31:46;;;;;;;;;;;;;;;24.42;44.77;99748.47;3139023;28;20357;-70
2023/08/21 03:33:18;;;;;;;;;;;;;;;24.43;44.74;99749.28;3140765;28;19971;-71
2023/08/21 03:34:50;;;;;;;;;;;;;;;24.42;44.57;99750.28;3140824;28;19974;-71
2023/08/21 03:36:20;;;;;;;;;;;;;;;24.41;44.83;99743.28;3141424;28;19930;-71
2023/08/21 03:37:52;;;;;;;;;;;;;;;24.40;44.89;99739.81;3124350;28;19981;-72
2023/08/21 03:39:22;;;;;;;;;;;;;;;24.40;44.59;99747.78;3139590;28;19932;-72
2023/08/21 03:40:55;;;;;;;;;;;;;;;24.40;44.73;99746.94;3141502;28;19925;-72
2023/08/21 03:42:26;;;;;;;;;;;;;;;24.40;44.53;99745.13;3140126;28;20001;-73
2023/08/21 03:43:58;;;;;;;;;;;;;;;24.40;44.90;99741.59;3130698;28;20015;-72
2023/08/21 03:45:28;;;;;;;;;;;;;;;24.38;44.89;99741.78;3141426;28;20440;-72
2023/08/21 03:47:00;;;;;;;;;;;;;;;24.38;44.63;99743.63;3140190;28;20075;-71
2023/08/21 03:48:30;;;;;;;;;;;;;;;24.36;44.71;99742.94;3135834;28;19924;-70
2023/08/21 03:50:02;;;;;;;;;;;;;;;24.35;44.78;99746.59;3139658;28;20030;-70
2023/08/21 03:51:33;;;;;;;;;;;;;;;24.32;44.92;99746.91;3128850;28;19929;-68
2023/08/21 03:53:04;;;;;;;;;;;;;;;24.26;45.39;99746.53;3133417;28;19970;-71
2023/08/21 03:54:35;;;;;;;;;;;;;;;24.24;45.09;99747.69;3141340;28;19924;-71
2023/08/21 03:56:08;;;;;;;;;;;;;;;24.23;45.15;99749.53;3141068;28;19924;-71
2023/08/21 03:57:38;;;;;;;;;;;;;;;24.25;45.37;99746.69;3138390;28;19939;-71
2023/08/21 03:59:10;;;;;;;;;;;;;;;24.26;44.99;99748.38;3140574;28;19995;-71
2023/08/21 04:00:41;;;;;;;;;;;;;;;24.23;45.39;99746.03;3141132;28;19968;-70
2023/08/21 04:02:12;;;;;;;;;;;;;;;24.24;45.29;99748.53;3130613;28;19936;-72
2023/08/21 04:03:43;;;;;;;;;;;;;;;24.23;45.38;99746.88;3140663;28;19971;-71
2023/08/21 04:05:14;;;;;;;;;;;;;;;24.25;45.09;99752.00;3141018;28;19935;-72
2023/08/21 04:06:45;;;;;;;;;;;;;;;24.24;45.09;99758.34;3141202;28;19982;-74
2023/08/21 04:08:17;;;;;;;;;;;;;;;24.25;45.25;99762.66;3118753;28;19925;-74
2023/08/21 04:09:47;;;;;;;;;;;;;;;24.23;45.38;99746.88;3140942;28;19966;-72
2023/08/21 04:11:20;;;;;;;;;;;;;;;24.21;45.20;99740.84;3139810;28;19924;-67
2023/08/21 04:12:51;;;;;;;;;;;;;;;24.22;45.48;99744.34;3140941;28;20250;-65
2023/08/21 04:14:22;;;;;;;;;;;;;;;24.25;45.47;99754.66;3140831;28;20404;-67
2023/08/21 04:15:53;;;;;;;;;;;;;;;24.27;45.21;99750.88;3140978;28;20012;-69
2023/08/21 04:17:25;;;;;;;;;;;;;;;24.32;45.09;99754.91;3140769;28;20411;-67
2023/08/21 04:18:56;;;;;;;;;;;;;;;24.35;45.39;99754.56;3140862;28;19924;-67
2023/08/21 04:20:28;;;;;;;;;;;;;;;24.37;45.18;99750.75;3140056;28;19924;-77
2023/08/21 04:21:59;;;;;;;;;;;;;;;24.39;45.10;99754.09;3137813;28;19928;-74
2023/08/21 04:23:30;;;;;;;;;;;;;;;24.40;45.34;99754.91;3140932;28;20377;-71
2023/08/21 04:25:01;;;;;;;;;;;;;;;24.41;45.22;99760.09;3151974;28;19927;-75
2023/08/21 04:26:34;;;;;;;;;;;;;;;24.42;45.31;99760.91;3153358;28;20030;-74
2023/08/21 04:28:05;;;;;;;;;;;;;;;24.43;45.34;99755.47;3153622;28;19924;-75
2023/08/21 04:29:37;;;;;;;;;;;;;;;24.44;44.98;99753.66;3153296;28;19931;-77
2023/08/21 04:31:09;;;;;;;;;;;;;;;24.43;45.14;99758.13;3152314;28;19977;-74
2023/08/21 04:32:39;;;;;;;;;;;;;;;24.43;45.41;99760.81;3148505;28;19924;-73
2023/08/21 04:34:11;;;;;;;;;;;;;;;24.44;45.37;99756.31;3153147;28;19924;-76
2023/08/21 04:35:43;;;;;;;;;;;;;;;24.47;45.06;99759.47;3153513;28;19977;-73
2023/08/21 04:37:14;;;;;;;;;;;;;;;24.49;45.04;99760.16;3149593;28;20397;-73
2023/08/21 04:38:45;;;;;;;;;;;;;;;24.53;45.16;99758.00;3142893;28;19924;-70
2023/08/21 04:40:17;;;;;;;;;;;;;;;24.57;44.81;99748.69;3143188;28;20293;-71
2023/08/21 04:41:50;;;;;;;;;;;;;;;24.61;45.08;99755.38;3150619;28;19928;-73
2023/08/21 04:43:21;;;;;;;;;;;;;;;24.61;45.22;99760.72;3154114;28;19977;-75
2023/08/21 04:44:56;;;;;;;;;;;;;;;24.62;44.88;99762.38;3152504;28;19954;-73
2023/08/21 04:46:27;;;;;;;;;;;;;;;24.61;44.92;99759.84;3142270;28;19995;-71
2023/08/21 04:47:58;;;;;;;;;;;;;;;24.60;45.04;99763.53;3142650;28;19931;-77
2023/08/21 04:49:29;;;;;;;;;;;;;;;24.60;45.00;99758.19;3152438;28;19924;-73
2023/08/21 04:51:01;;;;;;;;;;;;;;;24.63;45.26;99771.19;3153085;28;20392;-74
2023/08/21 04:52:31;;;;;;;;;;;;;;;24.66;44.79;99769.03;3146925;28;19924;-74
2023/08/21 04:54:03;;;;;;;;;;;;;;;24.70;44.83;99769.56;3152730;28;20610;-73
2023/08/21 04:55:34;;;;;;;;;;;;;;;24.74;44.94;99770.91;3152664;28;19928;-72
2023/08/21 04:57:07;;;;;;;;;;;;;;;24.79;44.62;99773.91;3153195;28;19924;-71
2023/08/21 04:58:37;;;;;;;;;;;;;;;24.82;44.81;99773.59;3151964;28;19981;-71
2023/08/21 05:00:10;;;;;;;;;;;;;;;24.84;44.59;99768.91;3152613;28;19999;-72
2023/08/21 05:01:42;;;;;;;;;;;;;;;24.85;45.03;99773.28;3145009;28;20374;-73
2023/08/21 05:03:12;;;;;;;;;;;;;;;24.85;44.97;99773.28;3137785;28;20373;-73
2023/08/21 05:04:44;;;;;;;;;;;;;;;24.85;44.97;99764.44;3152245;28;20004;-73
2023/08/21 05:06:15;;;;;;;;;;;;;;;24.87;44.87;99762.44;3152846;28;19924;-73
2023/08/21 05:07:46;;;;;;;;;;;;;;;24.90;44.68;99762.13;3149759;28;19935;-80
2023/08/21 05:09:17;;;;;;;;;;;;;;;24.92;44.69;99763.63;3152636;28;19923;-71
2023/08/21 05:10:49;;;;;;;;;;;;;;;24.96;44.86;99774.78;3149522;28;19962;-72
2023/08/21 05:12:22;;;;;;;;;;;;;;;25.00;44.79;99775.31;3152602;28;20293;-71
2023/08/21 05:13:53;;;;;;;;;;;;;;;25.03;44.77;99767.81;3152824;28;19928;-75
2023/08/21 05:15:24;;;;;;;;;;;;;;;25.07;44.46;99768.31;3151725;28;19967;-67
2023/08/21 05:16:55;;;;;;;;;;;;;;;25.09;44.33;99772.50;3152697;28;19981;-66
2023/08/21 05:18:28;;;;;;;;;;;;;;;25.13;44.57;99773.84;3152662;28;20425;-64
2023/08/21 05:19:59;;;;;;;;;;;;;;;25.15;44.71;99769.19;3149122;28;19934;-63
2023/08/21 05:21:30;;;;;;;;;;;;;;;25.18;44.72;99774.19;3151669;28;20328;-64
2023/08/21 05:23:04;;;;;;;;;;;;;;;25.20;44.50;99771.34;3141500;28;19932;-64
2023/08/21 05:24:34;;;;;;;;;;;;;;;25.24;44.73;99779.88;3150344;28;20018;-66
2023/08/21 05:26:06;;;;;;;;;;;;;;;25.29;44.50;99775.72;3150016;28;19923;-66
2023/08/21 05:27:39;;;;;;;;;;;;;;;25.35;44.21;99780.41;3152522;28;20027;-64
2023/08/21 05:29:11;;;;;;;;;;;;;;;25.42;44.25;99778.72;3152386;28;20006;-63
2023/08/21 05:30:41;;;;;;;;;;;;;;;25.52;44.19;99775.06;3152323;28;19930;-64
2023/08/21 05:32:13;;;;;;;;;;;;;;;25.67;44.53;99778.72;3151392;28;20341;-66
2023/08/21 05:33:45;;;;;;;;;;;;;;;25.86;43.93;99773.09;3152102;28;20438;-67
2023/08/21 05:35:16;;;;;;;;;;;;;;;26.24;43.94;99781.34;3144632;28;19986;-67
2023/08/21 05:36:50;;;;;;;;;;;;;;;26.88;42.88;99781.28;3138137;28;19924;-68
2023/08/21 05:38:22;;;;;;;;;;;;;;;27.64;41.26;99778.81;3137285;28;20693;-66
2023/08/21 05:39:53;;;;;;;;;;;;;;;28.39;40.47;99775.22;3144486;28;19957;-67
2023/08/21 05:41:24;;;;;;;;;;;;;;;29.14;39.32;99776.81;3142493;28;20053;-68
2023/08/21 05:42:57;;;;;;;;;;;;;;;29.85;37.66;99776.03;3147446;28;19963;-69
2023/08/21 05:44:29;;;;;;;;;;;;;;;30.42;36.79;99780.34;3152509;28;20022;-68
2023/08/21 05:46:00;;;;;;;;;;;;;;;30.88;36.03;99778.91;3150750;28;19946;-66
2023/08/21 05:47:31;;;;;;;;;;;;;;;31.40;35.38;99772.03;3149334;28;19982;-67
2023/08/21 05:49:02;;;;;;;;;;;;;;;31.89;34.55;99768.94;3151778;28;19923;-66
2023/08/21 05:50:36;;;;;;;;;;;;;;;32.39;33.82;99774.66;3151980;28;20081;-68
2023/08/21 05:52:09;;;;;;;;;;;;;;;32.75;33.49;99778.69;3149663;28;19923;-74
2023/08/21 05:53:41;;;;;;;;;;;;;;;33.06;33.17;99777.09;3141046;28;20111;-72
2023/08/21 05:55:12;;;;;;;;;;;;;;;33.34;32.74;99774.03;3142091;28;19924;-72
2023/08/21 05:56:43;;;;;;;;;;;;;;;33.58;32.25;99779.69;3151405;28;20402;-71
2023/08/21 05:58:15;;;;;;;;;;;;;;;33.56;31.95;99777.19;3152046;28;19928;-71
2023/08/21 05:59:48;;;;;;;;;;;;;;;33.29;32.24;99774.66;3151972;28;20010;-69
2023/08/21 06:01:18;;;;;;;;;;;;;;;32.92;32.96;99773.63;3151225;28;19931;-69
2023/08/21 06:02:50;;;;;;;;;;;;;;;32.52;33.58;99776.50;3152011;28;19974;-68
2023/08/21 06:04:20;;;;;;;;;;;;;;;32.04;33.99;99782.19;3151260;28;19928;-70
2023/08/21 06:05:52;;;;;;;;;;;;;;;31.58;34.53;99783.00;3140046;28;19924;-69
2023/08/21 06:07:23;;;;;;;;;;;;;;;31.15;35.59;99775.28;3133078;28;20381;-68
2023/08/21 06:08:55;;;;;;;;;;;;;;;30.83;36.14;99783.03;3152100;28;19935;-66
2023/08/21 06:10:26;;;;;;;;;;;;;;;30.53;36.54;99784.34;3151933;28;19930;-66
2023/08/21 06:11:57;;;;;;;;;;;;;;;30.36;36.85;99790.03;3151824;28;19931;-66
2023/08/21 06:13:31;;;;;;;;;;;;;;;30.26;37.04;99789.56;3149232;28;19924;-65
2023/08/21 06:15:08;;;;;;;;;;;;;;;30.19;37.17;99783.28;3152137;28;20102;-65
2023/08/21 06:16:39;;;;;;;;;;;;;;;30.16;37.37;99783.69;3150697;28;19974;-66
2023/08/21 06:18:11;;;;;;;;;;;;;;;30.15;37.44;99788.22;3139583;28;20169;-67
2023/08/21 06:19:42;;;;;;;;;;;;;;;30.18;37.56;99786.19;3139798;28;19930;-65
2023/08/21 06:21:16;;;;;;;;;;;;;;;30.23;37.50;99789.13;3151371;28;19924;-66
2023/08/21 06:22:47;;;;;;;;;;;;;;;30.27;37.20;99785.03;3142293;28;20700;-67
2023/08/21 06:24:18;;;;;;;;;;;;;;;30.32;37.06;99791.47;3149994;28;19935;-76
2023/08/21 06:25:50;;;;;;;;;;;;;;;30.37;37.08;99786.31;3152065;28;20080;-78
2023/08/21 06:27:21;;;;;;;;;;;;;;;30.44;37.10;99793.56;3152188;28;19924;-75
2023/08/21 06:28:54;;;;;;;;;;;;;;;30.48;36.91;99784.94;3151904;28;19931;-76
2023/08/21 06:30:25;;;;;;;;;;;;;;;30.57;36.86;99791.78;3152420;28;20389;-77
2023/08/21 06:31:56;;;;;;;;;;;;;;;30.65;36.86;99790.81;3143450;28;19925;-79
2023/08/21 06:33:27;;;;;;;;;;;;;;;30.74;36.49;99788.78;3144062;28;19928;-77
2023/08/21 06:34:59;;;;;;;;;;;;;;;30.81;36.42;99785.09;3152018;28;20416;-75
2023/08/21 06:36:29;;;;;;;;;;;;;;;30.90;36.53;99787.63;3150121;28;20326;-74
2023/08/21 06:38:01;;;;;;;;;;;;;;;30.99;36.16;99792.59;3148444;28;19928;-75
2023/08/21 06:39:33;;;;;;;;;;;;;;;31.05;35.81;99797.16;3151704;28;19981;-78
2023/08/21 06:41:04;;;;;;;;;;;;;;;31.11;35.71;99794.72;3157210;28;19959;-76
2023/08/21 06:42:36;;;;;;;;;;;;;;;31.14;35.55;99799.69;3157650;28;19934;-76
2023/08/21 06:44:08;;;;;;;;;;;;;;;31.12;35.01;99790.97;3157400;28;19942;-78
2023/08/21 06:45:40;;;;;;;;;;;;;;;31.14;34.87;99789.75;3156962;28;20015;-74
2023/08/21 06:47:11;;;;;;;;;;;;;;;31.15;34.97;99801.34;3156953;28;19923;-78
2023/08/21 06:48:43;;;;;;;;;;;;;;;31.17;34.99;99800.09;3157024;28;19925;-75
2023/08/21 06:50:14;;;;;;;;;;;;;;;31.19;34.64;99795.34;3156941;28;19959;-76
2023/08/21 06:51:45;;;;;;;;;;;;;;;31.27;34.61;99791.66;3156798;28;19935;-74
2023/08/21 06:53:16;;;;;;;;;;;;;;;31.31;34.52;99794.75;3150580;28;19938;-77
2023/08/21 06:54:48;;;;;;;;;;;;;;;31.37;34.26;99794.78;3151623;28;20396;-75
2023/08/21 06:56:18;;;;;;;;;;;;;;;31.44;34.09;99790.25;3157981;28;19974;-74
2023/08/21 06:57:50;;;;;;;;;;;;;;;31.49;33.93;99785.06;3156501;28;19931;-73
2023/08/21 06:59:22;;;;;;;;;;;;;;;31.56;34.00;99787.78;3157177;28;20381;-76
2023/08/21 07:00:54;;;;;;;;;;;;;;;31.63;33.99;99799.38;3156955;28;19922;-74
2023/08/21 07:02:26;;;;;;;;;;;;;;;31.71;33.65;99793.78;3138965;28;19925;-76
2023/08/21 07:03:57;;;;;;;;;;;;;;;31.77;33.85;99784.06;3156734;28;19934;-77
2023/08/21 07:05:28;;;;;;;;;;;;;;;31.82;33.62;99797.72;3156944;28;20312;-73
2023/08/21 07:07:00;;;;;;;;;;;;;;;31.93;33.64;99794.44;3154849;28;20340;-73
2023/08/21 07:08:33;;;;;;;;;;;;;;;32.01;33.57;99789.88;3156631;28;19926;-75
2023/08/21 07:10:20;;;;;;;;;;;;;;;32.08;33.45;99796.91;3159128;28;20064;-75
2023/08/21 07:14:31;;;;;;;;;;;;;;;32.19;33.20;99798.13;3139020;28;19966;-74
2023/08/21 07:24:00;;;;;;;;;;;;;;;32.58;32.78;99788.31;3116860;28;19972;-78
2023/08/21 07:25:51;;;;;;;;;;;;;;;32.67;32.39;99784.31;3101592;28;19925;-76
2023/08/21 07:27:22;;;;;;;;;;;;;;;32.77;32.46;99783.84;3106731;28;19944;-76
2023/08/21 07:28:54;;;;;;;;;;;;;;;32.81;32.20;99780.53;3109657;28;19925;-82
2023/08/21 07:30:25;;;;;;;;;;;;;;;32.85;31.97;99787.13;3142881;28;20362;-77
2023/08/21 07:31:56;;;;;;;;;;;;;;;32.89;31.89;99776.75;3157972;28;19920;-79
2023/08/21 07:33:29;;;;;;;;;;;;;;;32.93;31.67;99777.97;3158876;28;19974;-79
2023/08/21 07:35:00;;;;;;;;;;;;;;;33.01;31.61;99771.53;3157547;28;19924;-82
2023/08/21 07:36:32;;;;;;;;;;;;;;;33.10;31.65;99775.66;3147668;28;20055;-81
2023/08/21 07:38:03;;;;;;;;;;;;;;;33.22;31.55;99783.88;3152635;28;19927;-77
2023/08/21 07:39:35;;;;;;;;;;;;;;;33.32;31.52;99775.28;3151076;28;20649;-80
2023/08/21 07:41:07;;;;;;;;;;;;;;;33.40;31.52;99775.84;3158735;28;19920;-74
2023/08/21 07:42:39;;;;;;;;;;;;;;;33.53;31.18;99785.75;3157457;28;20053;-76
2023/08/21 07:44:09;;;;;;;;;;;;;;;33.65;30.91;99781.28;3158594;28;20384;-76
2023/08/21 07:45:41;;;;;;;;;;;;;;;33.72;30.85;99779.38;3158591;28;19924;-75
2023/08/21 07:47:12;;;;;;;;;;;;;;;33.86;30.89;99784.63;3158664;28;19919;-72
2023/08/21 07:48:45;;;;;;;;;;;;;;;34.00;30.86;99780.75;3158614;28;20144;-75
2023/08/21 07:50:17;;;;;;;;;;;;;;;34.15;30.65;99778.56;3158624;28;19963;-72
2023/08/21 07:51:49;;;;;;;;;;;;;;;34.32;30.43;99783.38;3158217;28;20456;-73
2023/08/21 07:53:20;;;;;;;;;;;;;;;34.39;30.21;99776.00;3154892;28;19945;-73
2023/08/21 07:54:53;;;;;;;;;;;;;;;34.50;30.09;99772.56;3158517;28;19920;-71
2023/08/21 07:56:24;;;;;;;;;;;;;;;34.67;30.07;99770.09;3158521;28;19919;-74
2023/08/21 07:57:55;;;;;;;;;;;;;;;34.85;29.83;99770.06;3158681;28;19928;-70
2023/08/21 07:59:26;;;;;;;;;;;;;;;35.04;29.41;99768.16;3158440;28;19924;-73
2023/08/21 08:00:57;;;;;;;;;;;;;;;35.26;29.26;99776.59;3158965;28;19963;-80
2023/08/21 08:02:29;;;;;;;;;;;;;;;35.39;28.92;99770.13;3157161;28;19920;-76
2023/08/21 08:04:01;;;;;;;;;;;;;;;35.51;28.52;99764.72;3158672;28;20064;-75
2023/08/21 08:05:32;;;;;;;;;;;;;;;35.62;28.50;99765.84;3159008;28;19927;-83
2023/08/21 08:07:03;;;;;;;;;;;;;;;35.79;28.50;99758.66;3147800;28;19928;-78
2023/08/21 08:08:35;;;;;;;;;;;;;;;36.07;28.41;99762.56;3148136;28;20522;-76